Time;durP1;ratioP1;P1;durP2;ratioP2;P2;SDS_P1;SDS_P2;PMS_P1;PMS_P2;Temp;Humidity;BMP_temperature;BMP_pressure;BME280_temperature;BME280_humidity;BME280_pressure;Samples;Min_cycle;Max_cycle;Signal;HPM_P1;HPM_P2
2023/12/23 00:02:04;;;;;;;6.13;1.03;;;7.10;99.90;;;;;;5022730;28;20198;-85
2023/12/23 00:04:29;;;;;;;0.20;0.20;;;7.20;99.90;;;;;;4997688;28;20630;-86
2023/12/23 00:06:55;;;;;;;0.40;0.40;;;7.20;99.90;;;;;;5021695;28;20230;-85
2023/12/23 00:09:21;;;;;;;0.23;0.23;;;7.30;99.90;;;;;;4997165;28;20226;-85
2023/12/23 00:11:47;;;;;;;0.20;0.20;;;7.30;99.90;;;;;;5006069;28;20216;-85
2023/12/23 00:14:13;;;;;;;0.50;0.50;;;7.40;99.90;;;;;;5038375;28;20194;-86
2023/12/23 00:16:38;;;;;;;0.20;0.20;;;7.40;99.90;;;;;;5010616;28;20667;-86
2023/12/23 00:19:05;;;;;;;1.13;0.53;;;7.40;99.90;;;;;;5021973;28;20214;-85
2023/12/23 00:21:31;;;;;;;0.43;0.43;;;7.40;99.90;;;;;;4989342;28;20213;-85
2023/12/23 00:23:57;;;;;;;2.47;1.27;;;7.40;99.90;;;;;;5004426;28;20735;-85
2023/12/23 00:26:22;;;;;;;0.90;0.90;;;7.40;99.90;;;;;;5020860;28;20271;-85
2023/12/23 00:28:48;;;;;;;0.30;0.30;;;7.40;99.90;;;;;;5038198;28;20671;-86
2023/12/23 00:31:14;;;;;;;0.60;0.60;;;7.40;99.90;;;;;;4988967;28;20217;-85
2023/12/23 00:33:42;;;;;;;4.43;1.30;;;7.50;99.90;;;;;;5038955;28;20237;-85
2023/12/23 00:36:07;;;;;;;0.20;0.20;;;7.50;99.90;;;;;;5020655;28;20589;-85
2023/12/23 00:38:33;;;;;;;0.50;0.50;;;7.50;99.90;;;;;;4989127;28;20228;-85
2023/12/23 00:40:59;;;;;;;0.27;0.27;;;7.50;99.90;;;;;;5020569;28;20705;-85
2023/12/23 00:43:25;;;;;;;0.30;0.30;;;7.50;99.90;;;;;;5020967;28;20193;-84
2023/12/23 00:45:51;;;;;;;5.83;1.03;;;7.50;99.90;;;;;;5005332;28;20275;-85
2023/12/23 00:48:17;;;;;;;5.37;1.17;;;7.50;99.90;;;;;;5021969;28;20627;-86
2023/12/23 00:50:43;;;;;;;0.30;0.30;;;7.60;99.90;;;;;;5004808;28;20221;-85
2023/12/23 00:53:09;;;;;;;0.63;0.63;;;7.60;99.90;;;;;;4989227;28;20186;-85
2023/12/23 00:55:34;;;;;;;0.57;0.57;;;7.60;99.90;;;;;;5005346;28;20243;-85
2023/12/23 00:58:00;;;;;;;0.30;0.30;;;7.60;99.90;;;;;;5004710;28;20230;-85
2023/12/23 01:00:26;;;;;;;0.27;0.27;;;7.60;99.90;;;;;;5011608;28;20226;-86
2023/12/23 01:02:52;;;;;;;0.70;0.70;;;7.60;99.90;;;;;;5020918;28;20238;-84
2023/12/23 01:05:18;;;;;;;0.30;0.30;;;7.60;99.90;;;;;;5004859;28;20222;-85
2023/12/23 01:07:43;;;;;;;0.40;0.40;;;7.70;99.90;;;;;;5038942;28;20309;-85
2023/12/23 01:10:09;;;;;;;0.73;0.40;;;7.60;99.90;;;;;;5005153;28;20574;-84
2023/12/23 01:12:35;;;;;;;0.30;0.30;;;7.60;99.90;;;;;;5013008;28;20221;-85
2023/12/23 01:15:00;;;;;;;0.27;0.27;;;7.60;99.90;;;;;;5020151;28;20717;-86
2023/12/23 01:17:26;;;;;;;0.43;0.43;;;7.60;99.90;;;;;;5021410;28;20260;-85
2023/12/23 01:19:52;;;;;;;4.73;0.90;;;7.60;99.90;;;;;;5021439;28;20192;-85
2023/12/23 01:22:18;;;;;;;6.30;0.77;;;7.60;99.90;;;;;;5004899;28;20304;-86
2023/12/23 01:24:43;;;;;;;0.30;0.30;;;7.60;99.90;;;;;;5004921;28;20604;-86
2023/12/23 01:27:09;;;;;;;0.20;0.20;;;7.60;99.90;;;;;;5020872;28;20260;-86
2023/12/23 01:29:35;;;;;;;0.27;0.27;;;7.50;99.90;;;;;;5008065;28;20225;-85
2023/12/23 01:32:00;;;;;;;0.10;0.10;;;7.50;99.90;;;;;;5008700;28;20283;-85
2023/12/23 01:34:26;;;;;;;22.93;0.50;;;7.60;99.90;;;;;;4993149;28;20705;-86
2023/12/23 01:36:52;;;;;;;0.20;0.20;;;7.50;99.90;;;;;;4989924;28;20629;-86
2023/12/23 01:39:18;;;;;;;0.47;0.47;;;7.60;99.90;;;;;;4991473;28;20920;-85
2023/12/23 01:41:44;;;;;;;1.17;1.17;;;7.60;99.90;;;;;;5040412;28;20217;-86
2023/12/23 01:44:09;;;;;;;0.27;0.27;;;7.50;99.90;;;;;;5024190;28;20532;-85
2023/12/23 01:46:36;;;;;;;0.50;0.50;;;7.40;99.90;;;;;;4991441;28;20801;-86
2023/12/23 01:49:02;;;;;;;0.13;0.13;;;7.30;99.90;;;;;;5039590;28;20522;-85
2023/12/23 01:51:28;;;;;;;0.67;0.67;;;7.30;99.90;;;;;;5006918;28;20233;-86
2023/12/23 01:54:04;;;;;;;2.23;2.10;;;7.30;99.90;;;;;;5039730;28;20225;-85
2023/12/23 01:56:34;;;;;;;0.13;0.13;;;7.30;99.90;;;;;;5041426;28;20304;-86
2023/12/23 01:59:02;;;;;;;0.70;0.70;;;7.30;99.90;;;;;;5039590;28;20182;-85
2023/12/23 02:01:32;;;;;;;0.60;0.60;;;7.20;99.90;;;;;;5024667;28;20236;-85
2023/12/23 02:03:58;;;;;;;3.83;1.17;;;7.20;99.90;;;;;;5024001;28;20314;-86
2023/12/23 02:06:25;;;;;;;2.87;0.90;;;7.20;99.90;;;;;;5007542;28;20639;-85
2023/12/23 02:08:50;;;;;;;0.70;0.70;;;7.20;99.90;;;;;;5041939;28;20225;-86
2023/12/23 02:11:28;;;;;;;0.57;0.57;;;7.20;99.90;;;;;;5007906;28;20221;-86
2023/12/23 02:14:04;;;;;;;0.30;0.30;;;7.20;99.90;;;;;;5024854;28;20251;-85
2023/12/23 02:16:31;;;;;;;0.30;0.30;;;7.20;99.90;;;;;;5040715;28;20206;-85
2023/12/23 02:18:56;;;;;;;2.03;0.87;;;7.30;99.90;;;;;;5018050;28;20217;-85
2023/12/23 02:21:23;;;;;;;0.30;0.30;;;7.20;99.90;;;;;;5023775;28;20553;-86
2023/12/23 02:23:49;;;;;;;6.37;1.43;;;7.20;99.90;;;;;;4985413;28;20233;-84
2023/12/23 02:26:17;;;;;;;2.20;1.33;;;7.20;99.90;;;;;;5023731;28;20190;-85
2023/12/23 02:28:44;;;;;;;0.67;0.67;;;7.20;99.90;;;;;;5042097;28;20777;-85
2023/12/23 02:31:10;;;;;;;0.30;0.30;;;7.10;99.90;;;;;;4997011;28;20435;-85
2023/12/23 02:33:36;;;;;;;0.43;0.43;;;7.10;99.90;;;;;;5022314;28;20725;-85
2023/12/23 02:36:02;;;;;;;4.40;0.47;;;7.10;99.90;;;;;;4989359;28;20210;-85
2023/12/23 02:38:28;;;;;;;0.30;0.30;;;7.10;99.90;;;;;;5038557;28;20266;-85
2023/12/23 02:40:54;;;;;;;0.47;0.40;;;7.00;99.90;;;;;;4989863;28;20194;-85
2023/12/23 02:43:19;;;;;;;0.40;0.40;;;7.10;99.90;;;;;;5022153;28;20587;-86
2023/12/23 02:45:45;;;;;;;0.20;0.20;;;7.10;99.90;;;;;;5022753;28;20635;-85
2023/12/23 02:48:11;;;;;;;0.50;0.50;;;7.10;99.90;;;;;;4990411;28;20230;-85
2023/12/23 02:50:36;;;;;;;0.30;0.30;;;6.90;99.90;;;;;;5013104;28;20229;-85
2023/12/23 02:53:03;;;;;;;0.20;0.20;;;6.90;99.90;;;;;;5006659;28;20190;-85
2023/12/23 02:55:29;;;;;;;0.30;0.30;;;7.10;99.90;;;;;;5023225;28;20635;-85
2023/12/23 02:57:54;;;;;;;0.23;0.23;;;6.90;99.90;;;;;;5021936;28;20224;-84
2023/12/23 03:00:20;;;;;;;0.23;0.23;;;7.00;99.90;;;;;;5006426;28;20325;-84
2023/12/23 03:02:46;;;;;;;1.47;1.37;;;7.10;99.90;;;;;;5000243;28;20264;-85
2023/12/23 03:05:12;;;;;;;0.87;0.87;;;6.90;99.90;;;;;;4989570;28;20182;-85
2023/12/23 03:07:37;;;;;;;0.50;0.50;;;7.20;99.90;;;;;;4990002;28;20210;-84
2023/12/23 03:10:03;;;;;;;4.43;0.50;;;6.80;99.90;;;;;;5021682;28;20703;-85
2023/12/23 03:12:29;;;;;;;0.43;0.43;;;6.90;99.90;;;;;;5038487;28;20283;-84
2023/12/23 03:14:55;;;;;;;0.10;0.10;;;7.10;99.90;;;;;;5011647;28;20970;-85
2023/12/23 03:17:20;;;;;;;0.20;0.20;;;6.80;99.90;;;;;;5021759;28;20233;-84
2023/12/23 03:19:46;;;;;;;4.33;0.60;;;7.00;99.90;;;;;;4990624;28;20190;-84
2023/12/23 03:22:12;;;;;;;0.30;0.30;;;7.10;99.90;;;;;;5040047;28;20229;-84
2023/12/23 03:24:38;;;;;;;0.20;0.20;;;7.20;99.90;;;;;;5021829;28;20241;-83
2023/12/23 03:27:03;;;;;;;0.97;0.77;;;7.10;99.90;;;;;;5005960;28;20764;-83
2023/12/23 03:29:29;;;;;;;0.30;0.30;;;7.10;99.90;;;;;;5004885;28;20752;-83
2023/12/23 03:31:55;;;;;;;0.20;0.20;;;6.80;99.90;;;;;;5037230;28;20226;-83
2023/12/23 03:34:21;;;;;;;0.13;0.13;;;7.20;99.90;;;;;;4990791;28;20246;-84
2023/12/23 03:36:46;;;;;;;0.20;0.20;;;6.90;99.90;;;;;;5037969;28;20283;-84
2023/12/23 03:39:12;;;;;;;0.30;0.30;;;7.00;99.90;;;;;;5005752;28;21002;-84
2023/12/23 03:41:38;;;;;;;0.20;0.20;;;7.00;99.90;;;;;;5010785;28;20317;-83
2023/12/23 03:44:04;;;;;;;0.37;0.37;;;7.00;99.90;;;;;;5020391;28;20529;-83
2023/12/23 03:46:30;;;;;;;0.30;0.30;;;6.90;99.90;;;;;;5006069;28;20206;-83
2023/12/23 03:48:56;;;;;;;4.07;0.83;;;7.30;99.90;;;;;;5005890;28;21132;-84
2023/12/23 03:51:23;;;;;;;0.30;0.30;;;7.30;99.90;;;;;;5004709;28;20217;-84
2023/12/23 03:53:49;;;;;;;2.43;1.03;;;6.90;99.90;;;;;;5021842;28;20606;-84
2023/12/23 03:56:14;;;;;;;0.60;0.60;;;7.20;99.90;;;;;;5021346;28;20201;-84
2023/12/23 03:58:40;;;;;;;1.07;1.07;;;7.20;99.90;;;;;;5012255;28;20217;-84
2023/12/23 04:01:06;;;;;;;0.30;0.30;;;7.00;99.90;;;;;;5004828;28;20222;-83
2023/12/23 04:03:31;;;;;;;1.00;0.43;;;7.10;99.90;;;;;;5020472;28;20275;-84
2023/12/23 04:05:57;;;;;;;0.60;0.60;;;7.10;99.90;;;;;;4988733;28;20217;-83
2023/12/23 04:08:23;;;;;;;0.67;0.67;;;7.10;99.90;;;;;;5037032;28;20233;-84
2023/12/23 04:10:49;;;;;;;6.43;1.07;;;7.10;99.90;;;;;;5022041;28;20186;-84
2023/12/23 04:13:16;;;;;;;0.20;0.20;;;7.40;99.90;;;;;;4988784;28;20228;-83
2023/12/23 04:15:41;;;;;;;0.83;0.83;;;7.20;99.90;;;;;;5005499;28;20650;-84
2023/12/23 04:18:07;;;;;;;4.47;0.90;;;7.50;99.90;;;;;;5004841;28;20225;-83
2023/12/23 04:20:33;;;;;;;1.50;1.00;;;7.20;99.90;;;;;;4988874;28;20230;-84
2023/12/23 04:22:59;;;;;;;0.20;0.20;;;7.50;99.90;;;;;;5021151;28;20225;-84
2023/12/23 04:25:24;;;;;;;0.40;0.40;;;7.30;99.90;;;;;;5020592;28;20186;-82
2023/12/23 04:27:51;;;;;;;0.40;0.40;;;7.10;99.90;;;;;;5004868;28;20312;-83
2023/12/23 04:30:17;;;;;;;0.30;0.30;;;7.40;99.90;;;;;;5021651;28;20227;-84
2023/12/23 04:32:43;;;;;;;0.30;0.30;;;7.40;99.90;;;;;;5019191;28;20225;-84
2023/12/23 04:35:09;;;;;;;0.10;0.10;;;7.30;99.90;;;;;;5004933;28;20397;-84
2023/12/23 04:37:40;;;;;;;0.33;0.33;;;7.10;99.90;;;;;;5038391;28;20220;-84
2023/12/23 04:40:07;;;;;;;0.20;0.20;;;7.50;99.90;;;;;;5005239;28;20245;-83
2023/12/23 04:42:32;;;;;;;0.40;0.40;;;7.10;99.90;;;;;;4988713;28;20347;-84
2023/12/23 04:44:58;;;;;;;0.90;0.57;;;7.10;99.90;;;;;;5004344;28;20742;-83
2023/12/23 04:47:24;;;;;;;0.27;0.27;;;7.20;99.90;;;;;;5021052;28;20234;-84
2023/12/23 04:49:50;;;;;;;4.90;0.93;;;7.40;99.90;;;;;;5004888;28;20212;-84
2023/12/23 04:52:15;;;;;;;0.97;0.97;;;7.00;99.90;;;;;;5021160;28;20486;-83
2023/12/23 04:54:41;;;;;;;6.80;0.60;;;7.20;99.90;;;;;;5020228;28;20914;-83
2023/12/23 04:57:07;;;;;;;1.23;0.90;;;7.00;99.90;;;;;;5020245;28;20577;-83
2023/12/23 04:59:33;;;;;;;0.30;0.30;;;7.20;99.90;;;;;;5036309;28;20599;-83
2023/12/23 05:01:58;;;;;;;0.10;0.10;;;7.10;99.90;;;;;;5020995;28;20586;-84
2023/12/23 05:04:25;;;;;;;0.90;0.83;;;7.20;99.90;;;;;;5008175;28;20189;-84
2023/12/23 05:06:50;;;;;;;0.20;0.20;;;7.00;99.90;;;;;;4996566;28;20221;-84
2023/12/23 05:09:16;;;;;;;0.20;0.20;;;7.00;99.90;;;;;;5009439;28;20690;-84
2023/12/23 05:11:42;;;;;;;0.20;0.20;;;7.10;99.90;;;;;;5024443;28;20229;-83
2023/12/23 05:14:07;;;;;;;5.30;0.70;;;6.90;99.90;;;;;;5007997;28;20190;-84
2023/12/23 05:16:33;;;;;;;0.27;0.27;;;7.10;99.90;;;;;;5009130;28;20937;-84
2023/12/23 05:18:59;;;;;;;5.73;0.40;;;7.00;99.90;;;;;;5008139;28;20213;-84
2023/12/23 05:21:25;;;;;;;0.53;0.53;;;6.60;99.90;;;;;;5025873;28;20218;-84
2023/12/23 05:23:50;;;;;;;0.20;0.20;;;6.80;99.90;;;;;;4999254;28;20325;-84
2023/12/23 05:26:22;;;;;;;0.30;0.30;;;6.80;99.90;;;;;;5002579;28;20233;-84
2023/12/23 05:28:48;;;;;;;0.20;0.20;;;6.90;99.90;;;;;;5026139;28;20205;-84
2023/12/23 05:31:14;;;;;;;0.20;0.20;;;6.60;99.90;;;;;;5008866;28;20661;-84
2023/12/23 05:33:39;;;;;;;0.20;0.20;;;6.50;99.90;;;;;;5024887;28;20479;-85
2023/12/23 05:36:06;;;;;;;0.30;0.30;;;6.80;99.90;;;;;;5007914;28;20221;-84
2023/12/23 05:38:31;;;;;;;0.20;0.20;;;6.80;99.90;;;;;;5008557;28;20253;-84
2023/12/23 05:40:57;;;;;;;0.37;0.37;;;6.60;99.90;;;;;;5007499;28;20597;-84
2023/12/23 05:43:23;;;;;;;0.30;0.30;;;6.60;99.90;;;;;;5025314;28;20209;-84
2023/12/23 05:45:48;;;;;;;0.20;0.20;;;6.80;99.90;;;;;;4991483;28;20293;-84
2023/12/23 05:48:14;;;;;;;0.20;0.20;;;6.60;99.90;;;;;;5024423;28;20497;-84
2023/12/23 05:50:40;;;;;;;0.20;0.20;;;7.00;99.90;;;;;;5024019;28;20226;-83
2023/12/23 05:53:06;;;;;;;0.40;0.40;;;6.80;99.90;;;;;;5024204;28;20273;-84
2023/12/23 05:55:32;;;;;;;0.20;0.20;;;6.60;99.90;;;;;;4992571;28;20192;-84
2023/12/23 05:57:57;;;;;;;0.50;0.50;;;6.60;99.90;;;;;;5040064;28;20241;-84
2023/12/23 06:00:23;;;;;;;0.33;0.33;;;6.80;99.90;;;;;;5040984;28;20217;-84
2023/12/23 06:02:49;;;;;;;0.50;0.50;;;6.60;99.90;;;;;;5008613;28;20229;-84
2023/12/23 06:05:14;;;;;;;0.30;0.30;;;6.50;99.90;;;;;;5023305;28;20204;-84
2023/12/23 06:07:40;;;;;;;0.20;0.20;;;6.50;99.90;;;;;;5041586;28;20728;-83
2023/12/23 06:10:06;;;;;;;0.30;0.30;;;6.60;99.90;;;;;;5023507;28;20596;-85
2023/12/23 06:12:32;;;;;;;0.50;0.30;;;6.70;99.90;;;;;;5008533;28;20399;-84
2023/12/23 06:14:58;;;;;;;0.30;0.30;;;7.00;99.90;;;;;;5015042;28;20314;-84
2023/12/23 06:17:25;;;;;;;0.27;0.27;;;6.70;99.90;;;;;;4992009;28;20217;-85
2023/12/23 06:19:51;;;;;;;0.33;0.33;;;6.90;99.90;;;;;;5040274;28;20251;-83
2023/12/23 06:22:16;;;;;;;0.30;0.30;;;6.60;99.90;;;;;;5023972;28;20226;-85
2023/12/23 06:24:42;;;;;;;0.30;0.30;;;6.90;99.90;;;;;;5008377;28;20305;-84
2023/12/23 06:27:08;;;;;;;0.20;0.20;;;6.80;99.90;;;;;;5007879;28;20226;-84
2023/12/23 06:29:34;;;;;;;1.03;1.03;;;6.70;99.90;;;;;;5039594;28;20229;-84
2023/12/23 06:32:00;;;;;;;0.40;0.40;;;6.70;99.90;;;;;;5039651;28;20218;-84
2023/12/23 06:34:26;;;;;;;0.77;0.40;;;6.70;99.90;;;;;;5024401;28;20198;-84
2023/12/23 06:36:51;;;;;;;0.20;0.20;;;7.00;99.90;;;;;;5023928;28;20643;-84
2023/12/23 06:39:17;;;;;;;0.63;0.40;;;6.70;99.90;;;;;;5007074;28;20214;-84
2023/12/23 06:41:45;;;;;;;0.60;0.60;;;6.60;99.90;;;;;;5024047;28;20222;-85
2023/12/23 06:44:10;;;;;;;0.50;0.50;;;6.80;99.90;;;;;;5023334;28;20197;-84
2023/12/23 06:46:36;;;;;;;0.20;0.20;;;6.40;99.90;;;;;;5006997;28;20194;-83
2023/12/23 06:49:02;;;;;;;0.33;0.33;;;6.70;99.90;;;;;;5006363;28;20233;-84
2023/12/23 06:51:28;;;;;;;0.20;0.20;;;6.80;99.90;;;;;;5023206;28;20210;-84
2023/12/23 06:53:55;;;;;;;0.40;0.40;;;6.60;99.90;;;;;;5039581;28;20580;-84
2023/12/23 06:56:22;;;;;;;0.20;0.20;;;6.00;99.90;;;;;;5040558;28;20719;-84
2023/12/23 06:58:48;;;;;;;0.30;0.30;;;6.20;99.90;;;;;;5041427;28;20197;-84
2023/12/23 07:01:14;;;;;;;0.20;0.20;;;6.10;99.90;;;;;;5023078;28;20214;-84
2023/12/23 07:03:41;;;;;;;0.23;0.23;;;6.00;99.90;;;;;;5039168;28;20229;-85
2023/12/23 07:06:10;;;;;;;0.30;0.30;;;6.30;99.90;;;;;;5006743;28;20218;-83
2023/12/23 07:08:36;;;;;;;0.20;0.20;;;6.40;99.90;;;;;;5021427;28;20698;-82
2023/12/23 07:11:02;;;;;;;0.20;0.20;;;6.00;99.90;;;;;;5039557;28;20208;-84
2023/12/23 07:13:29;;;;;;;0.30;0.30;;;5.90;99.90;;;;;;5007325;28;20188;-83
2023/12/23 07:15:55;;;;;;;0.40;0.40;;;6.00;99.90;;;;;;5022351;28;20563;-83
2023/12/23 07:18:20;;;;;;;0.20;0.20;;;6.00;99.90;;;;;;5005138;28;20641;-84
2023/12/23 07:20:47;;;;;;;0.20;0.20;;;6.20;99.90;;;;;;5022796;28;20677;-85
2023/12/23 07:23:14;;;;;;;0.20;0.20;;;6.10;99.90;;;;;;5023327;28;20221;-83
2023/12/23 07:25:39;;;;;;;0.50;0.50;;;6.30;99.90;;;;;;5005921;28;20193;-84
2023/12/23 07:28:06;;;;;;;0.20;0.20;;;6.50;99.90;;;;;;5022011;28;20221;-84
2023/12/23 07:30:31;;;;;;;0.20;0.20;;;6.40;99.90;;;;;;5037689;28;20309;-85
2023/12/23 07:32:57;;;;;;;1.20;0.50;;;6.30;99.90;;;;;;5037674;28;20225;-84
2023/12/23 07:35:23;;;;;;;0.87;0.40;;;6.30;99.90;;;;;;4989783;28;20245;-85
2023/12/23 07:37:50;;;;;;;0.30;0.30;;;6.20;99.90;;;;;;5001693;28;20194;-84
2023/12/23 07:40:16;;;;;;;0.30;0.30;;;6.50;99.90;;;;;;5038023;28;20288;-84
2023/12/23 07:42:42;;;;;;;0.20;0.20;;;6.20;99.90;;;;;;5039311;28;20263;-84
2023/12/23 07:45:09;;;;;;;0.30;0.30;;;6.60;99.90;;;;;;5021968;28;20698;-85
2023/12/23 07:47:34;;;;;;;2.83;0.40;;;6.50;99.90;;;;;;5021241;28;20237;-84
2023/12/23 07:50:00;;;;;;;0.40;0.40;;;6.20;99.90;;;;;;5004173;28;20205;-83
2023/12/23 07:52:26;;;;;;;0.20;0.20;;;6.10;99.90;;;;;;5021948;28;20206;-84
2023/12/23 07:54:52;;;;;;;0.30;0.30;;;6.30;99.90;;;;;;4995845;28;20221;-83
2023/12/23 07:57:18;;;;;;;0.30;0.30;;;6.20;99.90;;;;;;5022107;28;20359;-85
2023/12/23 07:59:45;;;;;;;0.77;0.77;;;6.10;99.90;;;;;;4989274;28;20290;-84
2023/12/23 08:02:10;;;;;;;0.30;0.30;;;6.30;99.90;;;;;;5006027;28;20239;-85
2023/12/23 08:04:36;;;;;;;0.20;0.20;;;6.20;99.90;;;;;;5037887;28;20588;-84
2023/12/23 08:07:02;;;;;;;0.20;0.20;;;6.20;99.90;;;;;;5022721;28;20669;-92
2023/12/23 08:09:28;;;;;;;0.20;0.20;;;6.50;99.90;;;;;;5008364;28;20226;-93
2023/12/23 08:11:54;;;;;;;0.20;0.20;;;6.20;99.90;;;;;;5007550;28;20229;-90
2023/12/23 08:14:19;;;;;;;0.20;0.20;;;6.20;99.90;;;;;;5022841;28;21108;-92
2023/12/23 08:16:45;;;;;;;0.30;0.30;;;6.10;99.90;;;;;;5024784;28;20634;-94
2023/12/23 08:19:12;;;;;;;0.20;0.20;;;6.30;99.90;;;;;;5016467;28;20683;-94
2023/12/23 08:21:38;;;;;;;0.30;0.30;;;6.20;99.90;;;;;;5024358;28;20218;-93
2023/12/23 08:24:04;;;;;;;0.20;0.20;;;6.10;99.90;;;;;;5015999;28;20229;-93
2023/12/23 08:26:30;;;;;;;0.33;0.33;;;6.20;99.90;;;;;;5006771;28;20214;-94
2023/12/23 08:28:56;;;;;;;0.20;0.20;;;6.60;99.90;;;;;;5024760;28;20190;-93
2023/12/23 08:31:21;;;;;;;0.20;0.20;;;6.40;99.90;;;;;;5041413;28;20182;-93
2023/12/23 08:33:47;;;;;;;0.30;0.30;;;6.50;99.90;;;;;;5001386;28;20653;-93
2023/12/23 08:36:13;;;;;;;0.20;0.20;;;6.60;99.90;;;;;;5008576;28;20713;-94
2023/12/23 08:38:39;;;;;;;0.20;0.20;;;6.60;99.90;;;;;;5026313;28;20225;-92
2023/12/23 08:41:04;;;;;;;0.20;0.20;;;6.40;99.90;;;;;;5011815;28;20190;-93
2023/12/23 08:43:31;;;;;;;0.27;0.27;;;6.60;99.90;;;;;;5029399;28;20190;-92
2023/12/23 08:45:57;;;;;;;0.30;0.30;;;6.50;99.90;;;;;;5029424;28;20558;-92
2023/12/23 08:48:22;;;;;;;0.20;0.20;;;6.50;99.90;;;;;;5027655;28;20226;-93
2023/12/23 08:50:48;;;;;;;0.30;0.30;;;6.30;99.90;;;;;;5026041;28;20236;-83
2023/12/23 08:53:16;;;;;;;0.30;0.30;;;6.60;99.90;;;;;;5007902;28;20200;-85
2023/12/23 08:55:44;;;;;;;0.20;0.20;;;6.70;99.90;;;;;;5009088;28;20247;-84
2023/12/23 08:58:13;;;;;;;0.30;0.30;;;6.40;99.90;;;;;;5006267;28;20337;-85
2023/12/23 09:00:39;;;;;;;0.20;0.20;;;6.40;99.90;;;;;;5042139;28;20217;-85
2023/12/23 09:03:07;;;;;;;0.20;0.20;;;6.50;99.90;;;;;;5025813;28;20918;-85
2023/12/23 09:05:33;;;;;;;0.57;0.33;;;6.70;99.90;;;;;;5010010;28;20225;-86
2023/12/23 09:07:59;;;;;;;0.20;0.20;;;6.20;99.90;;;;;;5025212;28;20759;-85
2023/12/23 09:10:25;;;;;;;0.20;0.20;;;6.60;99.90;;;;;;5025161;28;20178;-85
2023/12/23 09:12:51;;;;;;;0.40;0.40;;;6.30;99.90;;;;;;5024994;28;20233;-85
2023/12/23 09:15:16;;;;;;;0.20;0.20;;;6.40;99.90;;;;;;4985067;28;20298;-84
2023/12/23 09:17:42;;;;;;;0.40;0.40;;;6.60;99.90;;;;;;5006333;28;20174;-84
2023/12/23 09:20:10;;;;;;;0.63;0.63;;;6.50;99.90;;;;;;5024925;28;20214;-84
2023/12/23 09:22:36;;;;;;;0.20;0.20;;;6.30;99.90;;;;;;5025577;28;20751;-85
2023/12/23 09:25:01;;;;;;;0.40;0.40;;;6.70;99.90;;;;;;4992556;28;20226;-85
2023/12/23 09:27:28;;;;;;;0.30;0.30;;;6.50;99.90;;;;;;5022347;28;21205;-84
2023/12/23 09:29:55;;;;;;;0.77;0.77;;;6.40;99.90;;;;;;5042092;28;20248;-84
2023/12/23 09:32:21;;;;;;;1.33;0.53;;;6.70;99.90;;;;;;4989417;28;20699;-85
2023/12/23 09:34:49;;;;;;;0.40;0.40;;;6.40;99.90;;;;;;5005657;28;20233;-85
2023/12/23 09:37:15;;;;;;;0.20;0.20;;;6.80;99.90;;;;;;5021840;28;20230;-85
2023/12/23 09:39:41;;;;;;;0.43;0.43;;;6.60;99.90;;;;;;5022230;28;20461;-86
2023/12/23 09:42:07;;;;;;;1.03;0.97;;;6.50;99.90;;;;;;4989812;28;20646;-85
2023/12/23 09:44:32;;;;;;;0.37;0.37;;;6.20;99.90;;;;;;5022649;28;20228;-85
2023/12/23 09:46:58;;;;;;;0.30;0.30;;;6.60;99.90;;;;;;4988847;28;20626;-85
2023/12/23 09:49:24;;;;;;;0.40;0.40;;;6.40;99.90;;;;;;5037414;28;20275;-84
2023/12/23 09:51:50;;;;;;;0.50;0.47;;;6.40;99.90;;;;;;5022474;28;20222;-85
2023/12/23 09:54:20;;;;;;;0.23;0.23;;;6.70;99.90;;;;;;5021587;28;20643;-85
2023/12/23 09:56:50;;;;;;;0.40;0.40;;;6.60;99.90;;;;;;5021783;28;20195;-86
2023/12/23 09:59:16;;;;;;;0.47;0.47;;;6.50;99.90;;;;;;5005839;28;20613;-84
2023/12/23 10:01:42;;;;;;;0.20;0.20;;;6.70;99.90;;;;;;5019807;28;20211;-85
2023/12/23 10:04:08;;;;;;;0.20;0.20;;;6.60;99.90;;;;;;4997014;28;20219;-85
2023/12/23 10:06:33;;;;;;;0.70;0.70;;;6.60;99.90;;;;;;5021406;28;20841;-85
2023/12/23 10:08:59;;;;;;;0.60;0.60;;;6.50;99.90;;;;;;5021578;28;20217;-86
2023/12/23 10:11:25;;;;;;;0.40;0.40;;;6.30;99.90;;;;;;5014786;28;20229;-85
2023/12/23 10:13:51;;;;;;;0.20;0.20;;;6.80;99.90;;;;;;5020869;28;20222;-86
2023/12/23 10:16:18;;;;;;;0.37;0.37;;;6.80;99.90;;;;;;4978940;28;20222;-84
2023/12/23 10:18:46;;;;;;;0.53;0.50;;;6.40;99.90;;;;;;5005421;28;20238;-85
2023/12/23 10:21:11;;;;;;;0.20;0.20;;;6.50;99.90;;;;;;5021469;28;20236;-85
2023/12/23 10:23:37;;;;;;;0.30;0.30;;;6.60;99.90;;;;;;5019931;28;20655;-84
2023/12/23 10:26:03;;;;;;;0.57;0.50;;;6.80;99.90;;;;;;5020454;28;20620;-85
2023/12/23 10:28:29;;;;;;;0.20;0.20;;;6.60;99.90;;;;;;5019074;28;20489;-85
2023/12/23 10:31:01;;;;;;;0.30;0.30;;;6.90;99.90;;;;;;5021936;28;20222;-85
2023/12/23 10:33:30;;;;;;;0.20;0.20;;;7.00;99.90;;;;;;5037119;28;20717;-84
2023/12/23 10:35:58;;;;;;;0.20;0.20;;;6.60;99.90;;;;;;5042632;28;20232;-86
2023/12/23 10:38:26;;;;;;;0.80;0.80;;;6.70;99.90;;;;;;5042747;28;20196;-86
2023/12/23 10:41:01;;;;;;;0.30;0.30;;;6.70;99.90;;;;;;5024934;28;20332;-86
2023/12/23 10:43:27;;;;;;;0.30;0.30;;;7.00;99.90;;;;;;5025282;28;20292;-85
2023/12/23 10:45:54;;;;;;;0.20;0.20;;;7.00;99.90;;;;;;5026165;28;20263;-86
2023/12/23 10:48:21;;;;;;;0.30;0.30;;;7.20;99.90;;;;;;5017620;28;20693;-86
2023/12/23 10:50:48;;;;;;;0.30;0.30;;;6.80;99.90;;;;;;5024541;28;20764;-85
2023/12/23 10:53:17;;;;;;;0.47;0.47;;;6.80;99.90;;;;;;5043518;28;20217;-89
2023/12/23 10:55:45;;;;;;;0.30;0.30;;;7.20;99.90;;;;;;5031570;28;20225;-87
2023/12/23 10:58:14;;;;;;;0.40;0.40;;;6.90;99.90;;;;;;5040113;28;20666;-87
2023/12/23 11:00:41;;;;;;;0.30;0.30;;;7.40;99.90;;;;;;5007922;28;20205;-87
2023/12/23 11:03:09;;;;;;;0.20;0.20;;;7.20;99.90;;;;;;5002560;28;20192;-87
2023/12/23 11:05:37;;;;;;;0.20;0.20;;;7.00;99.90;;;;;;5007943;28;20196;-88
2023/12/23 11:08:08;;;;;;;0.20;0.20;;;7.40;99.90;;;;;;5024534;28;20230;-86
2023/12/23 11:10:35;;;;;;;0.20;0.20;;;7.10;99.90;;;;;;5024391;28;20240;-87
2023/12/23 11:13:02;;;;;;;0.20;0.20;;;7.40;99.90;;;;;;5040549;28;20796;-86
2023/12/23 11:15:29;;;;;;;0.10;0.10;;;7.10;99.90;;;;;;5023399;28;20232;-86
2023/12/23 11:17:57;;;;;;;0.30;0.30;;;7.20;99.90;;;;;;5024838;28;20687;-87
2023/12/23 11:20:31;;;;;;;0.20;0.20;;;7.60;99.90;;;;;;5026016;28;20190;-86
2023/12/23 11:23:00;;;;;;;1.17;0.80;;;7.70;99.90;;;;;;5042713;28;20312;-86
2023/12/23 11:25:39;;;;;;;0.30;0.30;;;7.20;99.90;;;;;;5023956;28;20221;-86
2023/12/23 11:28:13;;;;;;;0.20;0.20;;;7.50;99.90;;;;;;5024979;28;20229;-87
2023/12/23 11:30:47;;;;;;;0.10;0.10;;;7.30;99.90;;;;;;5023970;28;20222;-86
2023/12/23 11:33:13;;;;;;;0.30;0.30;;;7.50;99.90;;;;;;5039318;28;20236;-87
2023/12/23 11:35:46;;;;;;;0.20;0.20;;;7.40;99.90;;;;;;5023095;28;20208;-86
2023/12/23 11:38:13;;;;;;;0.23;0.23;;;7.20;99.90;;;;;;5041672;28;20222;-87
2023/12/23 11:40:39;;;;;;;0.30;0.30;;;7.30;99.90;;;;;;4991355;28;20276;-86
2023/12/23 11:43:05;;;;;;;0.30;0.30;;;7.40;99.90;;;;;;5032559;28;21084;-86
2023/12/23 11:45:31;;;;;;;0.53;0.53;;;7.40;99.90;;;;;;5038621;28;20218;-85
2023/12/23 11:47:57;;;;;;;0.27;0.27;;;7.70;99.90;;;;;;5039520;28;20205;-86
2023/12/23 11:50:23;;;;;;;0.73;0.73;;;7.50;99.90;;;;;;5023283;28;20684;-86
2023/12/23 11:52:50;;;;;;;0.23;0.23;;;7.60;99.90;;;;;;5023046;28;20558;-86
2023/12/23 11:55:17;;;;;;;0.40;0.40;;;7.50;99.90;;;;;;4999524;28;20236;-86
2023/12/23 11:57:43;;;;;;;0.47;0.47;;;7.60;99.90;;;;;;5023500;28;20225;-87
2023/12/23 12:00:10;;;;;;;0.30;0.30;;;7.70;99.90;;;;;;5023332;28;20214;-86
2023/12/23 12:02:35;;;;;;;0.40;0.40;;;8.00;99.90;;;;;;5023230;28;20271;-86
2023/12/23 12:05:01;;;;;;;0.30;0.30;;;7.80;99.90;;;;;;5038636;28;20270;-85
2023/12/23 12:07:29;;;;;;;0.97;0.97;;;8.20;99.90;;;;;;5021652;28;20256;-85
2023/12/23 12:09:55;;;;;;;0.87;0.87;;;8.00;99.90;;;;;;5040504;28;20276;-85
2023/12/23 12:12:21;;;;;;;0.50;0.50;;;8.10;99.90;;;;;;5023403;28;20210;-86
2023/12/23 12:14:47;;;;;;;0.70;0.70;;;8.10;99.90;;;;;;5007299;28;20193;-88
2023/12/23 12:17:13;;;;;;;0.50;0.50;;;8.60;99.90;;;;;;5007010;28;20229;-89
2023/12/23 12:19:39;;;;;;;0.27;0.27;;;8.30;99.90;;;;;;5006157;28;20230;-89
2023/12/23 12:22:05;;;;;;;0.20;0.20;;;8.40;99.90;;;;;;5004506;28;20721;-87
2023/12/23 12:24:32;;;;;;;0.20;0.20;;;8.50;99.90;;;;;;5020469;28;20213;-88
2023/12/23 12:26:59;;;;;;;0.23;0.23;;;8.50;99.90;;;;;;5038638;28;20217;-86
2023/12/23 12:29:25;;;;;;;0.13;0.13;;;8.40;99.90;;;;;;5006853;28;20194;-85
2023/12/23 12:31:51;;;;;;;0.40;0.30;;;8.40;99.90;;;;;;5038778;28;20214;-87
2023/12/23 12:34:18;;;;;;;1.37;0.80;;;8.60;99.90;;;;;;4998170;28;20237;-86
2023/12/23 12:36:44;;;;;;;0.60;0.37;;;8.50;99.90;;;;;;5015059;28;20218;-86
2023/12/23 12:39:12;;;;;;;0.43;0.43;;;8.60;99.90;;;;;;5017367;28;20229;-89
2023/12/23 12:41:38;;;;;;;2.10;0.67;;;8.60;99.90;;;;;;5026094;28;20251;-85
2023/12/23 12:44:04;;;;;;;0.27;0.27;;;8.50;99.90;;;;;;5018778;28;20227;-85
2023/12/23 12:46:33;;;;;;;0.77;0.77;;;8.70;99.90;;;;;;5000221;28;20226;-84
2023/12/23 12:49:04;;;;;;;0.80;0.80;;;8.80;99.90;;;;;;4993860;28;20238;-87
2023/12/23 12:51:30;;;;;;;0.20;0.20;;;8.80;99.90;;;;;;5000518;28;20222;-86
2023/12/23 12:53:56;;;;;;;0.90;0.87;;;8.90;99.90;;;;;;4992376;28;21092;-87